sensor_id;sensor_type;location;lat;lon;timestamp;P1;durP1;ratioP1;P2;durP2;ratioP2
77838;SDS011;67034;43.226;27.932;2023-02-15T00:00:42;10.73;;;5.53;;
77838;SDS011;67034;43.226;27.932;2023-02-15T00:03:07;9.27;;;5.38;;
77838;SDS011;67034;43.226;27.932;2023-02-15T00:07:58;9.25;;;5.40;;
77838;SDS011;67034;43.226;27.932;2023-02-15T00:12:50;6.03;;;3.20;;
77838;SDS011;67034;43.226;27.932;2023-02-15T00:17:42;4.88;;;3.17;;
77838;SDS011;67034;43.226;27.932;2023-02-15T00:20:08;7.85;;;4.40;;
77838;SDS011;67034;43.226;27.932;2023-02-15T00:22:34;7.03;;;4.68;;
77838;SDS011;67034;43.226;27.932;2023-02-15T00:25:00;9.82;;;4.75;;
77838;SDS011;67034;43.226;27.932;2023-02-15T00:27:26;11.38;;;5.60;;
77838;SDS011;67034;43.226;27.932;2023-02-15T00:29:51;7.82;;;4.38;;
77838;SDS011;67034;43.226;27.932;2023-02-15T00:32:18;10.68;;;5.53;;
77838;SDS011;67034;43.226;27.932;2023-02-15T00:34:44;7.10;;;3.97;;
77838;SDS011;67034;43.226;27.932;2023-02-15T00:37:10;10.50;;;5.60;;
77838;SDS011;67034;43.226;27.932;2023-02-15T00:42:01;8.30;;;4.63;;
77838;SDS011;67034;43.226;27.932;2023-02-15T00:44:26;8.55;;;4.40;;
77838;SDS011;67034;43.226;27.932;2023-02-15T00:49:19;9.68;;;4.40;;
77838;SDS011;67034;43.226;27.932;2023-02-15T00:51:45;10.18;;;4.72;;
77838;SDS011;67034;43.226;27.932;2023-02-15T00:54:10;9.77;;;5.38;;
77838;SDS011;67034;43.226;27.932;2023-02-15T00:56:36;11.90;;;5.90;;
77838;SDS011;67034;43.226;27.932;2023-02-15T01:01:27;8.52;;;5.15;;
77838;SDS011;67034;43.226;27.932;2023-02-15T01:03:53;11.52;;;5.75;;
77838;SDS011;67034;43.226;27.932;2023-02-15T01:08:46;7.30;;;4.30;;
77838;SDS011;67034;43.226;27.932;2023-02-15T01:13:38;7.70;;;3.90;;
77838;SDS011;67034;43.226;27.932;2023-02-15T01:16:05;10.30;;;4.80;;
77838;SDS011;67034;43.226;27.932;2023-02-15T01:18:31;7.03;;;4.20;;
77838;SDS011;67034;43.226;27.932;2023-02-15T01:20:59;7.15;;;4.88;;
77838;SDS011;67034;43.226;27.932;2023-02-15T01:23:26;8.63;;;4.93;;
77838;SDS011;67034;43.226;27.932;2023-02-15T01:25:52;9.85;;;5.00;;
77838;SDS011;67034;43.226;27.932;2023-02-15T01:28:17;9.13;;;4.90;;
77838;SDS011;67034;43.226;27.932;2023-02-15T01:30:43;10.77;;;5.47;;
77838;SDS011;67034;43.226;27.932;2023-02-15T01:33:09;9.25;;;4.78;;
77838;SDS011;67034;43.226;27.932;2023-02-15T01:35:42;7.68;;;4.75;;
77838;SDS011;67034;43.226;27.932;2023-02-15T01:38:09;8.20;;;4.78;;
77838;SDS011;67034;43.226;27.932;2023-02-15T01:40:36;13.10;;;5.13;;
77838;SDS011;67034;43.226;27.932;2023-02-15T01:43:01;6.53;;;4.45;;
77838;SDS011;67034;43.226;27.932;2023-02-15T01:45:28;4.13;;;2.95;;
77838;SDS011;67034;43.226;27.932;2023-02-15T01:47:56;10.63;;;4.13;;
77838;SDS011;67034;43.226;27.932;2023-02-15T01:50:28;7.93;;;4.72;;
77838;SDS011;67034;43.226;27.932;2023-02-15T01:52:57;7.70;;;4.20;;
77838;SDS011;67034;43.226;27.932;2023-02-15T01:55:29;13.50;;;5.82;;
77838;SDS011;67034;43.226;27.932;2023-02-15T01:57:59;9.32;;;5.15;;
77838;SDS011;67034;43.226;27.932;2023-02-15T02:00:26;10.00;;;5.05;;
77838;SDS011;67034;43.226;27.932;2023-02-15T02:02:53;8.32;;;4.93;;
77838;SDS011;67034;43.226;27.932;2023-02-15T02:05:20;10.80;;;5.40;;
77838;SDS011;67034;43.226;27.932;2023-02-15T02:07:46;8.35;;;3.22;;
77838;SDS011;67034;43.226;27.932;2023-02-15T02:10:15;8.63;;;4.53;;
77838;SDS011;67034;43.226;27.932;2023-02-15T02:12:42;11.55;;;5.32;;
77838;SDS011;67034;43.226;27.932;2023-02-15T02:15:11;8.52;;;4.35;;
77838;SDS011;67034;43.226;27.932;2023-02-15T02:17:42;8.43;;;4.25;;
77838;SDS011;67034;43.226;27.932;2023-02-15T02:20:28;5.57;;;3.97;;
77838;SDS011;67034;43.226;27.932;2023-02-15T02:23:23;5.43;;;3.50;;
77838;SDS011;67034;43.226;27.932;2023-02-15T02:26:13;8.98;;;5.65;;
77838;SDS011;67034;43.226;27.932;2023-02-15T02:35:18;10.48;;;5.85;;
77838;SDS011;67034;43.226;27.932;2023-02-15T02:37:54;10.23;;;4.63;;
77838;SDS011;67034;43.226;27.932;2023-02-15T02:40:30;4.38;;;3.05;;
77838;SDS011;67034;43.226;27.932;2023-02-15T02:43:05;13.65;;;6.93;;
77838;SDS011;67034;43.226;27.932;2023-02-15T02:45:38;12.25;;;6.15;;
77838;SDS011;67034;43.226;27.932;2023-02-15T02:48:09;8.93;;;5.13;;
77838;SDS011;67034;43.226;27.932;2023-02-15T02:50:41;15.40;;;6.85;;
77838;SDS011;67034;43.226;27.932;2023-02-15T02:53:07;11.50;;;5.20;;
77838;SDS011;67034;43.226;27.932;2023-02-15T02:55:34;7.07;;;4.25;;
77838;SDS011;67034;43.226;27.932;2023-02-15T02:58:07;11.55;;;5.28;;
77838;SDS011;67034;43.226;27.932;2023-02-15T03:00:37;7.57;;;3.80;;
77838;SDS011;67034;43.226;27.932;2023-02-15T03:03:07;2.53;;;1.83;;
77838;SDS011;67034;43.226;27.932;2023-02-15T03:05:37;11.02;;;5.25;;
77838;SDS011;67034;43.226;27.932;2023-02-15T03:08:08;3.75;;;2.40;;
77838;SDS011;67034;43.226;27.932;2023-02-15T03:10:35;11.48;;;5.28;;
77838;SDS011;67034;43.226;27.932;2023-02-15T03:13:03;6.10;;;3.88;;
77838;SDS011;67034;43.226;27.932;2023-02-15T03:15:29;5.22;;;3.53;;
77838;SDS011;67034;43.226;27.932;2023-02-15T03:18:17;8.98;;;5.07;;
77838;SDS011;67034;43.226;27.932;2023-02-15T03:20:48;18.55;;;5.53;;
77838;SDS011;67034;43.226;27.932;2023-02-15T03:23:17;8.60;;;3.47;;
77838;SDS011;67034;43.226;27.932;2023-02-15T03:25:47;4.93;;;3.83;;
77838;SDS011;67034;43.226;27.932;2023-02-15T03:28:18;10.40;;;4.15;;
77838;SDS011;67034;43.226;27.932;2023-02-15T03:30:48;4.95;;;2.90;;
77838;SDS011;67034;43.226;27.932;2023-02-15T03:33:18;4.47;;;2.35;;
77838;SDS011;67034;43.226;27.932;2023-02-15T03:35:50;6.50;;;3.10;;
77838;SDS011;67034;43.226;27.932;2023-02-15T03:38:28;11.38;;;5.05;;
77838;SDS011;67034;43.226;27.932;2023-02-15T03:41:00;8.90;;;5.25;;
77838;SDS011;67034;43.226;27.932;2023-02-15T03:43:38;6.22;;;3.65;;
77838;SDS011;67034;43.226;27.932;2023-02-15T03:46:12;5.60;;;3.28;;
77838;SDS011;67034;43.226;27.932;2023-02-15T03:48:43;6.70;;;3.40;;
77838;SDS011;67034;43.226;27.932;2023-02-15T03:51:14;8.88;;;4.43;;
77838;SDS011;67034;43.226;27.932;2023-02-15T03:54:01;7.45;;;4.60;;
77838;SDS011;67034;43.226;27.932;2023-02-15T03:56:29;14.65;;;4.80;;
77838;SDS011;67034;43.226;27.932;2023-02-15T03:58:55;8.55;;;4.90;;
77838;SDS011;67034;43.226;27.932;2023-02-15T04:01:39;9.68;;;5.65;;
77838;SDS011;67034;43.226;27.932;2023-02-15T04:04:34;8.38;;;4.57;;
77838;SDS011;67034;43.226;27.932;2023-02-15T04:07:03;11.55;;;4.50;;
77838;SDS011;67034;43.226;27.932;2023-02-15T04:09:31;13.25;;;5.63;;
77838;SDS011;67034;43.226;27.932;2023-02-15T04:12:16;9.02;;;4.28;;
77838;SDS011;67034;43.226;27.932;2023-02-15T04:14:42;9.85;;;3.67;;
77838;SDS011;67034;43.226;27.932;2023-02-15T04:17:26;9.63;;;5.88;;
77838;SDS011;67034;43.226;27.932;2023-02-15T04:19:52;4.65;;;3.35;;
77838;SDS011;67034;43.226;27.932;2023-02-15T04:22:37;14.07;;;6.82;;
77838;SDS011;67034;43.226;27.932;2023-02-15T04:25:22;3.42;;;3.13;;
77838;SDS011;67034;43.226;27.932;2023-02-15T04:27:48;10.38;;;4.28;;
77838;SDS011;67034;43.226;27.932;2023-02-15T04:30:16;3.85;;;2.53;;
77838;SDS011;67034;43.226;27.932;2023-02-15T04:32:43;6.28;;;2.75;;
77838;SDS011;67034;43.226;27.932;2023-02-15T04:37:37;5.20;;;3.30;;
77838;SDS011;67034;43.226;27.932;2023-02-15T04:40:04;9.30;;;5.13;;
77838;SDS011;67034;43.226;27.932;2023-02-15T04:42:31;3.97;;;2.60;;
77838;SDS011;67034;43.226;27.932;2023-02-15T04:44:56;8.95;;;4.40;;
77838;SDS011;67034;43.226;27.932;2023-02-15T04:47:22;8.68;;;4.43;;
77838;SDS011;67034;43.226;27.932;2023-02-15T04:49:48;9.30;;;4.60;;
77838;SDS011;67034;43.226;27.932;2023-02-15T04:52:14;9.18;;;4.55;;
77838;SDS011;67034;43.226;27.932;2023-02-15T04:54:41;9.20;;;4.72;;
77838;SDS011;67034;43.226;27.932;2023-02-15T04:57:07;8.73;;;4.35;;
77838;SDS011;67034;43.226;27.932;2023-02-15T04:59:32;11.07;;;4.80;;
77838;SDS011;67034;43.226;27.932;2023-02-15T05:01:58;10.25;;;5.32;;
77838;SDS011;67034;43.226;27.932;2023-02-15T05:04:24;8.40;;;4.60;;
77838;SDS011;67034;43.226;27.932;2023-02-15T05:06:49;4.90;;;2.65;;
77838;SDS011;67034;43.226;27.932;2023-02-15T05:09:15;8.77;;;4.38;;
77838;SDS011;67034;43.226;27.932;2023-02-15T05:11:43;9.68;;;4.35;;
77838;SDS011;67034;43.226;27.932;2023-02-15T05:14:08;11.40;;;5.50;;
77838;SDS011;67034;43.226;27.932;2023-02-15T05:16:34;3.80;;;2.60;;
77838;SDS011;67034;43.226;27.932;2023-02-15T05:19:00;8.52;;;4.32;;
77838;SDS011;67034;43.226;27.932;2023-02-15T05:21:26;11.75;;;5.55;;
77838;SDS011;67034;43.226;27.932;2023-02-15T05:23:51;5.07;;;3.38;;
77838;SDS011;67034;43.226;27.932;2023-02-15T05:26:20;10.55;;;4.88;;
77838;SDS011;67034;43.226;27.932;2023-02-15T05:29:07;6.25;;;4.10;;
77838;SDS011;67034;43.226;27.932;2023-02-15T05:31:34;10.35;;;3.40;;
77838;SDS011;67034;43.226;27.932;2023-02-15T05:34:00;19.42;;;7.38;;
77838;SDS011;67034;43.226;27.932;2023-02-15T05:36:26;9.35;;;4.95;;
77838;SDS011;67034;43.226;27.932;2023-02-15T05:38:53;6.22;;;4.15;;
77838;SDS011;67034;43.226;27.932;2023-02-15T05:41:18;4.78;;;3.20;;
77838;SDS011;67034;43.226;27.932;2023-02-15T05:43:44;5.55;;;3.75;;
77838;SDS011;67034;43.226;27.932;2023-02-15T05:46:11;8.90;;;5.00;;
77838;SDS011;67034;43.226;27.932;2023-02-15T05:48:37;11.52;;;5.78;;
77838;SDS011;67034;43.226;27.932;2023-02-15T05:51:04;10.43;;;4.70;;
77838;SDS011;67034;43.226;27.932;2023-02-15T05:53:31;12.00;;;5.32;;
77838;SDS011;67034;43.226;27.932;2023-02-15T05:55:58;11.35;;;4.57;;
77838;SDS011;67034;43.226;27.932;2023-02-15T05:58:25;14.35;;;6.15;;
77838;SDS011;67034;43.226;27.932;2023-02-15T06:03:17;10.05;;;3.78;;
77838;SDS011;67034;43.226;27.932;2023-02-15T06:05:43;10.82;;;5.07;;
77838;SDS011;67034;43.226;27.932;2023-02-15T06:08:09;4.65;;;3.75;;
77838;SDS011;67034;43.226;27.932;2023-02-15T06:10:35;7.13;;;4.32;;
77838;SDS011;67034;43.226;27.932;2023-02-15T06:13:00;7.20;;;3.42;;
77838;SDS011;67034;43.226;27.932;2023-02-15T06:15:26;11.50;;;4.82;;
77838;SDS011;67034;43.226;27.932;2023-02-15T06:17:52;11.20;;;5.18;;
77838;SDS011;67034;43.226;27.932;2023-02-15T06:20:19;4.80;;;3.45;;
77838;SDS011;67034;43.226;27.932;2023-02-15T06:22:45;10.57;;;4.68;;
77838;SDS011;67034;43.226;27.932;2023-02-15T06:25:11;13.98;;;5.65;;
77838;SDS011;67034;43.226;27.932;2023-02-15T06:27:37;5.82;;;3.03;;
77838;SDS011;67034;43.226;27.932;2023-02-15T06:30:03;8.20;;;4.07;;
77838;SDS011;67034;43.226;27.932;2023-02-15T06:32:29;7.00;;;4.00;;
77838;SDS011;67034;43.226;27.932;2023-02-15T06:34:55;12.98;;;5.63;;
77838;SDS011;67034;43.226;27.932;2023-02-15T06:37:22;14.30;;;5.20;;
77838;SDS011;67034;43.226;27.932;2023-02-15T06:39:47;8.68;;;5.43;;
77838;SDS011;67034;43.226;27.932;2023-02-15T06:42:15;16.65;;;7.45;;
77838;SDS011;67034;43.226;27.932;2023-02-15T06:44:43;8.95;;;4.55;;
77838;SDS011;67034;43.226;27.932;2023-02-15T06:47:08;3.88;;;2.95;;
77838;SDS011;67034;43.226;27.932;2023-02-15T06:49:34;6.43;;;4.00;;
77838;SDS011;67034;43.226;27.932;2023-02-15T06:52:00;9.75;;;4.70;;
77838;SDS011;67034;43.226;27.932;2023-02-15T06:54:27;14.35;;;5.97;;
77838;SDS011;67034;43.226;27.932;2023-02-15T06:56:52;6.03;;;4.30;;
77838;SDS011;67034;43.226;27.932;2023-02-15T06:59:18;7.88;;;3.60;;
77838;SDS011;67034;43.226;27.932;2023-02-15T07:01:44;6.80;;;4.20;;
77838;SDS011;67034;43.226;27.932;2023-02-15T07:04:09;8.65;;;4.25;;
77838;SDS011;67034;43.226;27.932;2023-02-15T07:06:35;7.80;;;5.03;;
77838;SDS011;67034;43.226;27.932;2023-02-15T07:09:01;7.22;;;3.90;;
77838;SDS011;67034;43.226;27.932;2023-02-15T07:11:28;6.75;;;3.97;;
77838;SDS011;67034;43.226;27.932;2023-02-15T07:14:12;9.13;;;3.92;;
77838;SDS011;67034;43.226;27.932;2023-02-15T07:19:03;4.45;;;2.60;;
77838;SDS011;67034;43.226;27.932;2023-02-15T07:21:29;9.10;;;5.30;;
77838;SDS011;67034;43.226;27.932;2023-02-15T07:23:55;7.85;;;4.18;;
77838;SDS011;67034;43.226;27.932;2023-02-15T07:26:22;5.25;;;3.30;;
77838;SDS011;67034;43.226;27.932;2023-02-15T07:28:50;6.38;;;3.58;;
77838;SDS011;67034;43.226;27.932;2023-02-15T07:31:15;5.88;;;3.03;;
77838;SDS011;67034;43.226;27.932;2023-02-15T07:33:41;5.78;;;4.38;;
77838;SDS011;67034;43.226;27.932;2023-02-15T07:36:07;8.38;;;4.90;;
77838;SDS011;67034;43.226;27.932;2023-02-15T07:38:36;7.45;;;3.97;;
77838;SDS011;67034;43.226;27.932;2023-02-15T07:41:04;7.40;;;4.03;;
77838;SDS011;67034;43.226;27.932;2023-02-15T07:43:32;8.38;;;4.18;;
77838;SDS011;67034;43.226;27.932;2023-02-15T07:46:01;10.25;;;5.22;;
77838;SDS011;67034;43.226;27.932;2023-02-15T07:48:28;6.40;;;3.25;;
77838;SDS011;67034;43.226;27.932;2023-02-15T07:50:53;8.98;;;4.18;;
77838;SDS011;67034;43.226;27.932;2023-02-15T07:53:19;10.33;;;4.83;;
77838;SDS011;67034;43.226;27.932;2023-02-15T07:55:45;4.30;;;3.22;;
77838;SDS011;67034;43.226;27.932;2023-02-15T07:58:11;6.80;;;4.25;;
77838;SDS011;67034;43.226;27.932;2023-02-15T08:00:36;6.53;;;3.88;;
77838;SDS011;67034;43.226;27.932;2023-02-15T08:03:25;9.45;;;4.95;;
77838;SDS011;67034;43.226;27.932;2023-02-15T08:05:55;7.10;;;3.75;;
77838;SDS011;67034;43.226;27.932;2023-02-15T08:08:22;4.72;;;3.20;;
77838;SDS011;67034;43.226;27.932;2023-02-15T08:10:58;4.22;;;2.95;;
77838;SDS011;67034;43.226;27.932;2023-02-15T08:13:43;6.10;;;3.47;;
77838;SDS011;67034;43.226;27.932;2023-02-15T08:16:24;5.80;;;3.97;;
77838;SDS011;67034;43.226;27.932;2023-02-15T08:18:53;5.95;;;3.33;;
77838;SDS011;67034;43.226;27.932;2023-02-15T08:21:20;8.43;;;5.15;;
77838;SDS011;67034;43.226;27.932;2023-02-15T08:23:46;11.13;;;5.32;;
77838;SDS011;67034;43.226;27.932;2023-02-15T08:26:12;7.95;;;4.70;;
77838;SDS011;67034;43.226;27.932;2023-02-15T08:28:38;9.05;;;5.45;;
77838;SDS011;67034;43.226;27.932;2023-02-15T08:33:30;6.20;;;3.35;;
77838;SDS011;67034;43.226;27.932;2023-02-15T08:38:30;8.10;;;4.60;;
77838;SDS011;67034;43.226;27.932;2023-02-15T08:40:57;8.75;;;4.13;;
77838;SDS011;67034;43.226;27.932;2023-02-15T08:45:48;11.18;;;5.57;;
77838;SDS011;67034;43.226;27.932;2023-02-15T08:50:39;7.72;;;4.97;;
77838;SDS011;67034;43.226;27.932;2023-02-15T08:55:32;13.68;;;6.88;;
77838;SDS011;67034;43.226;27.932;2023-02-15T09:00:23;6.43;;;3.80;;
77838;SDS011;67034;43.226;27.932;2023-02-15T09:02:50;12.10;;;6.20;;
77838;SDS011;67034;43.226;27.932;2023-02-15T09:07:41;7.13;;;4.57;;
77838;SDS011;67034;43.226;27.932;2023-02-15T09:12:34;9.15;;;4.90;;
77838;SDS011;67034;43.226;27.932;2023-02-15T09:17:25;6.00;;;4.28;;
77838;SDS011;67034;43.226;27.932;2023-02-15T09:22:16;7.57;;;3.75;;
77838;SDS011;67034;43.226;27.932;2023-02-15T09:24:42;8.82;;;4.85;;
77838;SDS011;67034;43.226;27.932;2023-02-15T09:27:09;7.45;;;4.53;;
77838;SDS011;67034;43.226;27.932;2023-02-15T09:29:36;8.70;;;4.55;;
77838;SDS011;67034;43.226;27.932;2023-02-15T09:34:27;10.48;;;5.00;;
77838;SDS011;67034;43.226;27.932;2023-02-15T09:39:19;8.95;;;4.90;;
77838;SDS011;67034;43.226;27.932;2023-02-15T09:41:58;9.93;;;5.05;;
77838;SDS011;67034;43.226;27.932;2023-02-15T09:44:58;7.90;;;4.10;;
77838;SDS011;67034;43.226;27.932;2023-02-15T09:48:13;9.18;;;4.03;;
77838;SDS011;67034;43.226;27.932;2023-02-15T09:50:50;7.18;;;4.60;;
77838;SDS011;67034;43.226;27.932;2023-02-15T09:53:29;9.63;;;4.85;;
77838;SDS011;67034;43.226;27.932;2023-02-15T09:56:10;9.73;;;5.85;;
77838;SDS011;67034;43.226;27.932;2023-02-15T09:58:45;8.15;;;4.72;;
77838;SDS011;67034;43.226;27.932;2023-02-15T10:01:17;8.73;;;4.35;;
77838;SDS011;67034;43.226;27.932;2023-02-15T10:03:56;7.30;;;4.53;;
77838;SDS011;67034;43.226;27.932;2023-02-15T10:06:35;7.72;;;4.47;;
77838;SDS011;67034;43.226;27.932;2023-02-15T10:12:01;7.80;;;4.40;;
77838;SDS011;67034;43.226;27.932;2023-02-15T10:14:47;8.15;;;5.07;;
77838;SDS011;67034;43.226;27.932;2023-02-15T10:17:37;10.90;;;4.82;;
77838;SDS011;67034;43.226;27.932;2023-02-15T10:20:14;7.63;;;4.60;;
77838;SDS011;67034;43.226;27.932;2023-02-15T10:22:54;8.93;;;5.05;;
77838;SDS011;67034;43.226;27.932;2023-02-15T10:25:36;10.55;;;5.55;;
77838;SDS011;67034;43.226;27.932;2023-02-15T10:28:13;11.52;;;6.05;;
77838;SDS011;67034;43.226;27.932;2023-02-15T10:30:46;7.97;;;4.38;;
77838;SDS011;67034;43.226;27.932;2023-02-15T10:33:15;12.13;;;5.57;;
77838;SDS011;67034;43.226;27.932;2023-02-15T10:35:58;11.63;;;5.72;;
77838;SDS011;67034;43.226;27.932;2023-02-15T10:38:32;11.05;;;5.97;;
77838;SDS011;67034;43.226;27.932;2023-02-15T10:41:07;9.82;;;5.38;;
77838;SDS011;67034;43.226;27.932;2023-02-15T10:43:44;6.97;;;3.37;;
77838;SDS011;67034;43.226;27.932;2023-02-15T10:46:35;7.80;;;4.95;;
77838;SDS011;67034;43.226;27.932;2023-02-15T10:49:24;9.10;;;4.95;;
77838;SDS011;67034;43.226;27.932;2023-02-15T10:52:03;9.35;;;5.72;;
77838;SDS011;67034;43.226;27.932;2023-02-15T10:54:36;9.05;;;4.80;;
77838;SDS011;67034;43.226;27.932;2023-02-15T10:57:12;9.73;;;6.13;;
77838;SDS011;67034;43.226;27.932;2023-02-15T10:59:52;9.13;;;5.38;;
77838;SDS011;67034;43.226;27.932;2023-02-15T11:02:27;15.02;;;6.18;;
77838;SDS011;67034;43.226;27.932;2023-02-15T11:05:10;9.57;;;5.60;;
77838;SDS011;67034;43.226;27.932;2023-02-15T11:07:48;8.63;;;5.43;;
77838;SDS011;67034;43.226;27.932;2023-02-15T11:10:22;12.23;;;5.97;;
77838;SDS011;67034;43.226;27.932;2023-02-15T11:12:53;12.43;;;7.40;;
77838;SDS011;67034;43.226;27.932;2023-02-15T11:15:24;12.93;;;6.63;;
77838;SDS011;67034;43.226;27.932;2023-02-15T11:20:25;11.85;;;6.25;;
77838;SDS011;67034;43.226;27.932;2023-02-15T11:22:55;10.35;;;6.07;;
77838;SDS011;67034;43.226;27.932;2023-02-15T11:25:23;7.38;;;5.80;;
77838;SDS011;67034;43.226;27.932;2023-02-15T11:27:50;10.57;;;6.07;;
77838;SDS011;67034;43.226;27.932;2023-02-15T11:30:19;9.38;;;5.40;;
77838;SDS011;67034;43.226;27.932;2023-02-15T11:32:47;10.05;;;6.68;;
77838;SDS011;67034;43.226;27.932;2023-02-15T11:35:19;10.87;;;6.80;;
77838;SDS011;67034;43.226;27.932;2023-02-15T11:37:50;10.30;;;6.75;;
77838;SDS011;67034;43.226;27.932;2023-02-15T11:40:20;17.13;;;13.00;;
77838;SDS011;67034;43.226;27.932;2023-02-15T11:42:49;12.18;;;6.95;;
77838;SDS011;67034;43.226;27.932;2023-02-15T11:45:21;9.93;;;5.70;;
77838;SDS011;67034;43.226;27.932;2023-02-15T11:50:19;12.05;;;6.70;;
77838;SDS011;67034;43.226;27.932;2023-02-15T11:52:48;13.02;;;5.90;;
77838;SDS011;67034;43.226;27.932;2023-02-15T11:55:14;9.85;;;5.70;;
77838;SDS011;67034;43.226;27.932;2023-02-15T11:57:45;10.75;;;5.95;;
77838;SDS011;67034;43.226;27.932;2023-02-15T12:00:25;9.30;;;5.38;;
77838;SDS011;67034;43.226;27.932;2023-02-15T12:03:01;9.80;;;5.90;;
77838;SDS011;67034;43.226;27.932;2023-02-15T12:05:39;10.80;;;6.20;;
77838;SDS011;67034;43.226;27.932;2023-02-15T12:08:12;10.90;;;6.45;;
77838;SDS011;67034;43.226;27.932;2023-02-15T12:10:46;11.90;;;6.18;;
77838;SDS011;67034;43.226;27.932;2023-02-15T12:13:22;10.55;;;5.82;;
77838;SDS011;67034;43.226;27.932;2023-02-15T12:15:49;10.93;;;5.47;;
77838;SDS011;67034;43.226;27.932;2023-02-15T12:18:19;10.38;;;6.40;;
77838;SDS011;67034;43.226;27.932;2023-02-15T12:20:53;9.07;;;5.90;;
77838;SDS011;67034;43.226;27.932;2023-02-15T12:23:23;11.82;;;5.68;;
77838;SDS011;67034;43.226;27.932;2023-02-15T12:25:52;10.02;;;6.55;;
77838;SDS011;67034;43.226;27.932;2023-02-15T12:28:22;13.13;;;6.60;;
77838;SDS011;67034;43.226;27.932;2023-02-15T12:30:50;11.20;;;6.70;;
77838;SDS011;67034;43.226;27.932;2023-02-15T12:33:21;10.75;;;5.60;;
77838;SDS011;67034;43.226;27.932;2023-02-15T12:35:56;12.98;;;7.10;;
77838;SDS011;67034;43.226;27.932;2023-02-15T12:38:25;10.30;;;5.72;;
77838;SDS011;67034;43.226;27.932;2023-02-15T12:40:59;12.23;;;6.70;;
77838;SDS011;67034;43.226;27.932;2023-02-15T12:43:27;12.73;;;6.38;;
77838;SDS011;67034;43.226;27.932;2023-02-15T12:46:02;11.27;;;7.68;;
77838;SDS011;67034;43.226;27.932;2023-02-15T12:48:43;11.02;;;7.35;;
77838;SDS011;67034;43.226;27.932;2023-02-15T12:51:13;12.25;;;8.05;;
77838;SDS011;67034;43.226;27.932;2023-02-15T12:53:40;12.15;;;7.50;;
77838;SDS011;67034;43.226;27.932;2023-02-15T12:56:07;10.15;;;6.80;;
77838;SDS011;67034;43.226;27.932;2023-02-15T12:58:35;12.38;;;7.28;;
77838;SDS011;67034;43.226;27.932;2023-02-15T13:01:08;12.05;;;7.18;;
77838;SDS011;67034;43.226;27.932;2023-02-15T13:03:37;13.25;;;8.45;;
77838;SDS011;67034;43.226;27.932;2023-02-15T13:06:04;10.88;;;7.47;;
77838;SDS011;67034;43.226;27.932;2023-02-15T13:08:35;14.85;;;8.63;;
77838;SDS011;67034;43.226;27.932;2023-02-15T13:11:11;16.17;;;7.82;;
77838;SDS011;67034;43.226;27.932;2023-02-15T13:13:38;12.40;;;6.72;;
77838;SDS011;67034;43.226;27.932;2023-02-15T13:16:15;10.95;;;7.18;;
77838;SDS011;67034;43.226;27.932;2023-02-15T13:18:45;13.10;;;7.38;;
77838;SDS011;67034;43.226;27.932;2023-02-15T13:21:12;12.00;;;7.40;;
77838;SDS011;67034;43.226;27.932;2023-02-15T13:23:43;12.50;;;7.68;;
77838;SDS011;67034;43.226;27.932;2023-02-15T13:26:14;11.43;;;7.18;;
77838;SDS011;67034;43.226;27.932;2023-02-15T13:28:44;12.55;;;7.10;;
77838;SDS011;67034;43.226;27.932;2023-02-15T13:31:12;11.25;;;7.57;;
77838;SDS011;67034;43.226;27.932;2023-02-15T13:33:39;15.45;;;7.65;;
77838;SDS011;67034;43.226;27.932;2023-02-15T13:36:12;12.88;;;8.10;;
77838;SDS011;67034;43.226;27.932;2023-02-15T13:38:49;13.18;;;6.97;;
77838;SDS011;67034;43.226;27.932;2023-02-15T13:41:33;12.98;;;7.47;;
77838;SDS011;67034;43.226;27.932;2023-02-15T13:44:12;13.18;;;7.78;;
77838;SDS011;67034;43.226;27.932;2023-02-15T13:46:52;13.02;;;7.40;;
77838;SDS011;67034;43.226;27.932;2023-02-15T13:49:32;13.88;;;7.57;;
77838;SDS011;67034;43.226;27.932;2023-02-15T13:52:11;11.95;;;7.55;;
77838;SDS011;67034;43.226;27.932;2023-02-15T13:54:48;11.55;;;7.70;;
77838;SDS011;67034;43.226;27.932;2023-02-15T13:57:46;12.57;;;7.28;;
77838;SDS011;67034;43.226;27.932;2023-02-15T14:00:25;14.45;;;7.85;;
77838;SDS011;67034;43.226;27.932;2023-02-15T14:03:02;11.82;;;7.70;;
77838;SDS011;67034;43.226;27.932;2023-02-15T14:05:45;12.75;;;8.18;;
77838;SDS011;67034;43.226;27.932;2023-02-15T14:08:24;15.05;;;8.18;;
77838;SDS011;67034;43.226;27.932;2023-02-15T14:11:03;17.25;;;7.55;;
77838;SDS011;67034;43.226;27.932;2023-02-15T14:13:41;12.90;;;8.10;;
77838;SDS011;67034;43.226;27.932;2023-02-15T14:16:24;14.88;;;8.60;;
77838;SDS011;67034;43.226;27.932;2023-02-15T14:18:59;13.40;;;7.57;;
77838;SDS011;67034;43.226;27.932;2023-02-15T14:21:34;15.02;;;8.02;;
77838;SDS011;67034;43.226;27.932;2023-02-15T14:26:43;17.63;;;9.90;;
77838;SDS011;67034;43.226;27.932;2023-02-15T14:29:16;18.27;;;9.00;;
77838;SDS011;67034;43.226;27.932;2023-02-15T14:31:50;15.68;;;8.27;;
77838;SDS011;67034;43.226;27.932;2023-02-15T14:34:21;18.55;;;8.70;;
77838;SDS011;67034;43.226;27.932;2023-02-15T14:36:49;15.57;;;9.18;;
77838;SDS011;67034;43.226;27.932;2023-02-15T14:39:18;13.50;;;7.82;;
77838;SDS011;67034;43.226;27.932;2023-02-15T14:42:11;13.20;;;8.13;;
77838;SDS011;67034;43.226;27.932;2023-02-15T14:44:45;16.63;;;9.63;;
77838;SDS011;67034;43.226;27.932;2023-02-15T14:47:16;13.18;;;7.85;;
77838;SDS011;67034;43.226;27.932;2023-02-15T14:49:46;19.60;;;10.55;;
77838;SDS011;67034;43.226;27.932;2023-02-15T14:52:12;19.92;;;9.20;;
77838;SDS011;67034;43.226;27.932;2023-02-15T14:54:54;13.98;;;7.55;;
77838;SDS011;67034;43.226;27.932;2023-02-15T14:57:24;12.48;;;7.00;;
77838;SDS011;67034;43.226;27.932;2023-02-15T14:59:56;11.90;;;7.50;;
77838;SDS011;67034;43.226;27.932;2023-02-15T15:02:24;11.18;;;6.88;;
77838;SDS011;67034;43.226;27.932;2023-02-15T15:04:56;13.85;;;9.18;;
77838;SDS011;67034;43.226;27.932;2023-02-15T15:07:35;11.38;;;6.75;;
77838;SDS011;67034;43.226;27.932;2023-02-15T15:10:23;10.73;;;6.70;;
77838;SDS011;67034;43.226;27.932;2023-02-15T15:13:33;8.55;;;5.50;;
77838;SDS011;67034;43.226;27.932;2023-02-15T15:16:23;10.35;;;6.15;;
77838;SDS011;67034;43.226;27.932;2023-02-15T15:19:07;13.23;;;6.93;;
77838;SDS011;67034;43.226;27.932;2023-02-15T15:21:51;11.85;;;6.57;;
77838;SDS011;67034;43.226;27.932;2023-02-15T15:42:56;11.00;;;6.35;;
77838;SDS011;67034;43.226;27.932;2023-02-15T15:45:59;14.75;;;7.13;;
77838;SDS011;67034;43.226;27.932;2023-02-15T15:48:40;18.45;;;7.57;;
77838;SDS011;67034;43.226;27.932;2023-02-15T15:51:11;12.55;;;7.05;;
77838;SDS011;67034;43.226;27.932;2023-02-15T15:53:44;10.98;;;7.00;;
77838;SDS011;67034;43.226;27.932;2023-02-15T15:56:15;11.10;;;6.85;;
77838;SDS011;67034;43.226;27.932;2023-02-15T15:58:46;10.02;;;5.57;;
77838;SDS011;67034;43.226;27.932;2023-02-15T16:01:13;13.52;;;7.68;;
77838;SDS011;67034;43.226;27.932;2023-02-15T16:03:47;11.50;;;5.75;;
77838;SDS011;67034;43.226;27.932;2023-02-15T16:06:25;10.45;;;4.88;;
77838;SDS011;67034;43.226;27.932;2023-02-15T16:08:52;14.05;;;5.68;;
77838;SDS011;67034;43.226;27.932;2023-02-15T16:13:46;7.97;;;5.05;;
77838;SDS011;67034;43.226;27.932;2023-02-15T16:16:12;9.45;;;5.18;;
77838;SDS011;67034;43.226;27.932;2023-02-15T16:18:38;10.60;;;5.82;;
77838;SDS011;67034;43.226;27.932;2023-02-15T16:21:12;10.38;;;5.53;;
77838;SDS011;67034;43.226;27.932;2023-02-15T16:26:44;13.30;;;8.45;;
77838;SDS011;67034;43.226;27.932;2023-02-15T16:29:26;12.77;;;6.78;;